createdAt,value
2017-09-20T00:02:29.863Z,12.81
2017-09-20T00:04:59.379Z,12.81
2017-09-20T00:07:28.717Z,12.84
2017-09-20T00:09:58.098Z,12.83
2017-09-20T00:12:28.882Z,12.81
2017-09-20T00:15:02.405Z,12.80
2017-09-20T00:17:35.351Z,12.77
2017-09-20T00:20:08.346Z,12.79
2017-09-20T00:22:39.163Z,12.79
2017-09-20T00:25:08.773Z,12.76
2017-09-20T00:27:38.892Z,12.76
2017-09-20T00:30:08.473Z,12.74
2017-09-20T00:32:37.157Z,12.74
2017-09-20T00:35:05.848Z,12.75
2017-09-20T00:37:34.537Z,12.75
2017-09-20T00:40:03.321Z,12.72
2017-09-20T00:42:32.982Z,12.74
2017-09-20T00:45:06.159Z,12.72
2017-09-20T00:47:49.465Z,12.71
2017-09-20T00:50:31.762Z,12.69
2017-09-20T00:53:15.639Z,12.68
2017-09-20T00:55:51.407Z,12.67
2017-09-20T00:58:23.199Z,12.64
2017-09-20T01:00:54.421Z,12.63
2017-09-20T01:03:25.393Z,12.64
2017-09-20T01:05:55.793Z,12.62
2017-09-20T01:08:26.716Z,12.60
2017-09-20T01:10:58.106Z,12.57
2017-09-20T01:13:29.336Z,12.56
2017-09-20T01:15:59.912Z,12.55
2017-09-20T01:18:30.805Z,12.53
2017-09-20T01:24:09.503Z,12.50
2017-09-20T01:26:40.484Z,12.50
2017-09-20T01:29:11.416Z,12.47
2017-09-20T01:31:42.773Z,12.46
2017-09-20T01:34:14.047Z,12.44
2017-09-20T01:36:47.117Z,12.44
2017-09-20T01:39:18.906Z,12.42
2017-09-20T01:41:49.829Z,12.42
2017-09-20T01:44:19.304Z,12.40
2017-09-20T01:46:48.037Z,12.38
2017-09-20T01:49:16.826Z,12.39
2017-09-20T01:51:45.569Z,12.38
2017-09-20T01:54:14.427Z,12.38
2017-09-20T01:56:43.135Z,12.38
2017-09-20T01:59:11.851Z,12.37
2017-09-20T02:01:40.568Z,12.36
2017-09-20T02:04:09.327Z,12.35
2017-09-20T02:06:38.013Z,12.35
2017-09-20T02:09:06.701Z,12.36
2017-09-20T02:11:35.430Z,12.37
2017-09-20T02:14:04.140Z,12.37
2017-09-20T02:16:32.887Z,12.35
2017-09-20T02:19:01.611Z,12.36
2017-09-20T02:21:30.319Z,12.36
2017-09-20T02:23:59.042Z,12.36
2017-09-20T02:26:27.772Z,12.36
2017-09-20T02:28:56.482Z,12.36
2017-09-20T02:31:25.155Z,12.36
2017-09-20T02:33:53.841Z,12.35
2017-09-20T02:36:22.252Z,12.35
2017-09-20T02:38:51.004Z,12.37
2017-09-20T02:41:19.693Z,12.37
2017-09-20T02:43:48.436Z,12.37
2017-09-20T02:46:17.150Z,12.36
2017-09-20T02:48:45.953Z,12.37
2017-09-20T02:51:14.769Z,12.39
2017-09-20T02:53:43.470Z,12.39
2017-09-20T02:56:12.202Z,12.39
2017-09-20T02:58:40.946Z,12.37
2017-09-20T03:01:09.702Z,12.38
2017-09-20T03:03:38.462Z,12.39
2017-09-20T03:06:07.151Z,12.38
2017-09-20T03:08:37.590Z,12.39
2017-09-20T03:11:06.353Z,12.37
2017-09-20T03:13:35.121Z,12.38
2017-09-20T03:16:03.806Z,12.35
2017-09-20T03:18:36.106Z,12.36
2017-09-20T03:21:04.775Z,12.35
2017-09-20T03:23:33.444Z,12.35
2017-09-20T03:26:02.174Z,12.36
2017-09-20T03:28:34.748Z,12.35
2017-09-20T03:31:03.512Z,12.35
2017-09-20T03:33:32.265Z,12.36
2017-09-20T03:36:00.940Z,12.34
2017-09-20T03:38:29.601Z,12.34
2017-09-20T03:40:58.312Z,12.35
2017-09-20T03:43:27.032Z,12.36
2017-09-20T03:45:55.874Z,12.37
2017-09-20T03:48:24.617Z,12.37
2017-09-20T03:50:53.325Z,12.34
2017-09-20T03:53:22.030Z,12.34
2017-09-20T03:55:50.740Z,12.33
2017-09-20T03:58:19.562Z,12.33
2017-09-20T04:00:48.283Z,12.33
2017-09-20T04:03:16.978Z,12.33
2017-09-20T04:05:45.750Z,12.34
2017-09-20T04:08:14.448Z,12.34
2017-09-20T04:10:43.228Z,12.33
2017-09-20T04:13:11.888Z,12.34
2017-09-20T04:15:40.596Z,12.34
2017-09-20T04:18:09.333Z,12.35
2017-09-20T04:20:38.143Z,12.33
2017-09-20T04:25:49.910Z,12.33
2017-09-20T04:28:33.824Z,12.32
2017-09-20T04:31:18.731Z,12.32
2017-09-20T04:34:00.220Z,12.31
2017-09-20T04:36:44.215Z,12.31
2017-09-20T04:39:28.782Z,12.33
2017-09-20T04:42:14.077Z,12.31
2017-09-20T04:44:58.983Z,12.30
2017-09-20T04:47:45.347Z,12.30
2017-09-20T04:50:32.008Z,12.30
2017-09-20T04:53:01.776Z,12.28
2017-09-20T04:55:35.557Z,12.27
2017-09-20T04:58:04.811Z,12.27
2017-09-20T05:00:33.563Z,12.28
2017-09-20T05:03:02.985Z,12.29
2017-09-20T05:05:33.472Z,12.29
2017-09-20T05:08:06.345Z,12.28
2017-09-20T05:10:41.084Z,12.27
2017-09-20T05:13:09.832Z,12.26
2017-09-20T05:15:38.591Z,12.27
2017-09-20T05:18:07.468Z,12.25
2017-09-20T05:20:39.797Z,12.26
2017-09-20T05:23:08.598Z,12.26
2017-09-20T05:25:37.377Z,12.27
2017-09-20T05:28:06.188Z,12.26
2017-09-20T05:30:34.789Z,12.27
2017-09-20T05:33:03.376Z,12.28
2017-09-20T05:35:32.024Z,12.28
2017-09-20T05:38:00.602Z,12.28
2017-09-20T05:40:29.309Z,12.28
2017-09-20T05:42:58.064Z,12.26
2017-09-20T05:45:26.782Z,12.27
2017-09-20T05:47:55.475Z,12.26
2017-09-20T05:50:24.192Z,12.25
2017-09-20T05:52:52.891Z,12.24
2017-09-20T05:55:21.690Z,12.25
2017-09-20T05:57:50.401Z,12.25
2017-09-20T06:00:19.191Z,12.26
2017-09-20T06:02:47.993Z,12.27
2017-09-20T06:05:16.813Z,12.27
2017-09-20T06:07:45.601Z,12.28
2017-09-20T06:10:14.366Z,12.30
2017-09-20T06:12:43.124Z,12.32
2017-09-20T06:15:11.961Z,12.33
2017-09-20T06:17:40.675Z,12.35
2017-09-20T06:20:09.376Z,12.39
2017-09-20T06:22:39.048Z,12.39
2017-09-20T06:25:07.839Z,12.42
2017-09-20T06:27:37.238Z,12.45
2017-09-20T06:30:05.971Z,12.47
2017-09-20T06:32:34.666Z,12.49
2017-09-20T06:35:03.439Z,12.52
2017-09-20T06:37:32.146Z,12.53
2017-09-20T06:40:00.938Z,12.55
2017-09-20T06:42:29.658Z,12.57
2017-09-20T06:44:58.406Z,12.56
2017-09-20T06:47:27.156Z,12.59
2017-09-20T06:49:55.742Z,12.60
2017-09-20T06:52:24.469Z,12.62
2017-09-20T06:54:53.237Z,12.63
2017-09-20T06:57:21.958Z,12.65
2017-09-20T06:59:50.699Z,12.64
2017-09-20T07:02:19.454Z,12.65
2017-09-20T07:04:48.233Z,12.65
2017-09-20T07:07:16.991Z,12.66
2017-09-20T07:09:45.752Z,12.68
2017-09-20T07:12:14.555Z,12.66
2017-09-20T07:14:45.653Z,12.68
2017-09-20T07:17:14.394Z,12.69
2017-09-20T07:19:43.147Z,12.69
2017-09-20T07:22:11.945Z,12.68
2017-09-20T07:24:40.726Z,12.68
2017-09-20T07:27:09.459Z,12.70
2017-09-20T07:29:38.171Z,12.71
2017-09-20T07:32:06.888Z,12.72
2017-09-20T07:34:35.646Z,12.72
2017-09-20T07:37:04.433Z,12.74
2017-09-20T07:39:33.242Z,12.74
2017-09-20T07:42:01.980Z,12.77
2017-09-20T07:44:30.698Z,12.79
2017-09-20T07:46:59.448Z,12.78
2017-09-20T07:49:28.238Z,12.80
2017-09-20T07:51:57.022Z,12.82
2017-09-20T07:54:25.781Z,12.84
2017-09-20T07:56:54.497Z,12.84
2017-09-20T07:59:23.259Z,12.86
2017-09-20T08:01:51.999Z,12.88
2017-09-20T08:04:20.744Z,12.89
2017-09-20T08:06:49.449Z,12.91
2017-09-20T08:09:18.268Z,12.93
2017-09-20T08:11:47.009Z,12.93
2017-09-20T08:14:15.900Z,12.97
2017-09-20T08:16:44.620Z,12.98
2017-09-20T08:19:13.394Z,12.99
2017-09-20T08:21:42.139Z,13.02
2017-09-20T08:24:10.842Z,13.04
2017-09-20T08:26:39.738Z,13.06
2017-09-20T08:29:08.469Z,13.08
2017-09-20T08:31:37.339Z,13.11
2017-09-20T08:34:06.088Z,13.12
2017-09-20T08:36:34.709Z,13.15
2017-09-20T08:39:03.335Z,13.17
2017-09-20T08:41:32.159Z,13.19
2017-09-20T08:44:00.873Z,13.22
2017-09-20T08:46:29.626Z,13.25
2017-09-20T08:48:58.369Z,13.28
2017-09-20T08:51:27.082Z,13.30
2017-09-20T08:53:55.897Z,13.32
2017-09-20T08:56:24.683Z,13.35
2017-09-20T08:58:53.521Z,13.38
2017-09-20T09:01:22.293Z,13.41
2017-09-20T09:03:51.008Z,13.44
2017-09-20T09:06:19.798Z,13.47
2017-09-20T09:08:48.551Z,13.51
2017-09-20T09:11:17.341Z,13.53
2017-09-20T09:13:45.924Z,13.57
2017-09-20T09:16:15.376Z,13.61
2017-09-20T09:18:44.158Z,13.64
2017-09-20T09:21:13.011Z,13.68
2017-09-20T09:23:41.926Z,13.70
2017-09-20T09:26:10.781Z,13.72
2017-09-20T09:28:39.868Z,13.72
2017-09-20T09:31:08.835Z,13.75
2017-09-20T09:33:37.770Z,13.77
2017-09-20T09:36:06.450Z,13.79
2017-09-20T09:38:36.939Z,13.81
2017-09-20T09:41:05.744Z,13.82
2017-09-20T09:43:34.426Z,13.85
2017-09-20T09:46:03.265Z,13.88
2017-09-20T09:48:35.177Z,13.91
2017-09-20T09:51:03.993Z,13.93
2017-09-20T09:53:32.792Z,13.94
2017-09-20T09:56:01.627Z,13.95
2017-09-20T09:58:35.910Z,13.95
2017-09-20T10:01:04.879Z,13.97
2017-09-20T10:03:34.385Z,13.99
2017-09-20T10:06:03.166Z,14.01
2017-09-20T10:08:35.055Z,14.02
2017-09-20T10:11:03.811Z,14.06
2017-09-20T10:13:32.829Z,14.10
2017-09-20T10:16:02.547Z,14.11
2017-09-20T10:18:34.245Z,14.13
2017-09-20T10:21:03.088Z,14.15
2017-09-20T10:23:31.841Z,14.17
2017-09-20T10:26:00.652Z,14.17
2017-09-20T10:28:29.427Z,14.20
2017-09-20T10:30:58.261Z,14.23
2017-09-20T10:33:27.122Z,14.23
2017-09-20T10:35:55.917Z,14.23
2017-09-20T10:38:24.793Z,14.25
2017-09-20T10:40:53.786Z,14.27
2017-09-20T10:43:22.542Z,14.27
2017-09-20T10:45:51.381Z,14.30
2017-09-20T10:48:20.330Z,14.33
2017-09-20T10:50:49.159Z,14.35
2017-09-20T10:53:18.128Z,14.39
2017-09-20T10:55:47.017Z,14.39
2017-09-20T10:58:15.913Z,14.41
2017-09-20T11:00:44.688Z,14.40
2017-09-20T11:03:13.409Z,14.42
2017-09-20T11:05:42.179Z,14.43
2017-09-20T11:08:10.909Z,14.45
2017-09-20T11:10:39.673Z,14.47
2017-09-20T11:13:08.409Z,14.47
2017-09-20T11:15:37.137Z,14.48
2017-09-20T11:18:05.908Z,14.52
2017-09-20T11:20:34.752Z,14.54
2017-09-20T11:23:03.631Z,14.54
2017-09-20T11:25:32.375Z,14.58
2017-09-20T11:28:01.130Z,14.60
2017-09-20T11:30:29.961Z,14.62
2017-09-20T11:32:58.767Z,14.62
2017-09-20T11:35:27.664Z,14.64
2017-09-20T11:37:56.427Z,14.67
2017-09-20T11:40:25.213Z,14.64
2017-09-20T11:42:53.930Z,14.65
2017-09-20T11:45:22.819Z,14.68
2017-09-20T11:47:51.566Z,14.70
2017-09-20T11:50:20.397Z,14.73
2017-09-20T11:52:49.158Z,14.73
2017-09-20T11:55:17.952Z,14.73
2017-09-20T11:57:46.745Z,14.74
2017-09-20T12:00:15.514Z,14.77
2017-09-20T12:02:44.225Z,14.76
2017-09-20T12:05:13.060Z,14.77
2017-09-20T12:07:41.793Z,14.77
2017-09-20T12:10:10.520Z,14.79
2017-09-20T12:12:39.343Z,14.81
2017-09-20T12:15:08.153Z,14.83
2017-09-20T12:17:36.931Z,14.82
2017-09-20T12:20:05.691Z,14.84
2017-09-20T12:22:34.436Z,14.83
2017-09-20T12:25:03.169Z,14.85
2017-09-20T12:27:31.857Z,14.85
2017-09-20T12:30:00.621Z,14.86
2017-09-20T12:32:29.315Z,14.87
2017-09-20T12:34:58.032Z,14.88
2017-09-20T12:37:26.775Z,14.88
2017-09-20T12:39:55.610Z,14.88
2017-09-20T12:42:24.413Z,14.89
2017-09-20T12:44:53.145Z,14.89
2017-09-20T12:47:21.890Z,14.87
2017-09-20T12:49:50.618Z,14.91
2017-09-20T12:52:19.391Z,14.92
2017-09-20T12:54:48.122Z,14.93
2017-09-20T12:57:16.890Z,14.91
2017-09-20T12:59:45.634Z,14.94
2017-09-20T13:02:14.425Z,14.94
2017-09-20T13:04:43.126Z,14.95
2017-09-20T13:07:11.865Z,14.97
2017-09-20T13:09:40.580Z,14.97
2017-09-20T13:12:09.354Z,14.98
2017-09-20T13:14:38.099Z,14.99
2017-09-20T13:17:06.832Z,14.99
2017-09-20T13:19:35.611Z,15.01
2017-09-20T13:22:04.353Z,15.02
2017-09-20T13:24:33.128Z,15.03
2017-09-20T13:27:01.875Z,15.06
2017-09-20T13:29:30.641Z,15.05
2017-09-20T13:31:59.413Z,15.07
2017-09-20T13:34:28.216Z,15.06
2017-09-20T13:36:56.947Z,15.07
2017-09-20T13:39:25.623Z,15.09
2017-09-20T13:41:54.368Z,15.11
2017-09-20T13:44:23.118Z,15.13
2017-09-20T13:46:51.849Z,15.10
2017-09-20T13:49:20.532Z,15.14
2017-09-20T13:51:49.290Z,15.11
2017-09-20T13:54:18.022Z,15.12
2017-09-20T13:56:46.869Z,15.13
2017-09-20T13:59:15.596Z,15.13
2017-09-20T14:01:44.253Z,15.14
2017-09-20T14:04:12.946Z,15.15
2017-09-20T14:06:41.763Z,15.16
2017-09-20T14:09:10.469Z,15.17
2017-09-20T14:11:39.150Z,15.16
2017-09-20T14:14:07.934Z,15.19
2017-09-20T14:16:36.685Z,15.17
2017-09-20T14:19:05.512Z,15.18
2017-09-20T14:21:34.267Z,15.18
2017-09-20T14:24:03.005Z,15.17
2017-09-20T14:26:31.787Z,15.17
2017-09-20T14:29:00.541Z,15.16
2017-09-20T14:31:29.250Z,15.18
2017-09-20T14:33:58.090Z,15.20
2017-09-20T14:36:26.822Z,15.22
2017-09-20T14:38:55.611Z,15.20
2017-09-20T14:41:24.364Z,15.19
2017-09-20T14:43:53.051Z,15.19
2017-09-20T14:46:21.796Z,15.18
2017-09-20T14:48:50.506Z,15.18
2017-09-20T14:51:19.233Z,15.17
2017-09-20T14:53:47.926Z,15.17
2017-09-20T14:56:16.748Z,15.18
2017-09-20T14:58:45.469Z,15.17
2017-09-20T15:01:14.158Z,15.16
2017-09-20T15:03:42.937Z,15.16
2017-09-20T15:06:11.711Z,15.16
2017-09-20T15:08:40.527Z,15.14
2017-09-20T15:11:09.303Z,15.15
2017-09-20T15:13:38.079Z,15.14
2017-09-20T15:16:06.794Z,15.12
2017-09-20T15:18:38.070Z,15.11
2017-09-20T15:21:06.777Z,15.11
2017-09-20T15:23:35.515Z,15.09
2017-09-20T15:26:04.200Z,15.06
2017-09-20T15:28:36.483Z,15.08
2017-09-20T15:31:05.304Z,15.07
2017-09-20T15:33:34.043Z,15.06
2017-09-20T15:36:09.031Z,15.05
2017-09-20T15:38:52.721Z,15.03
2017-09-20T15:41:24.638Z,15.03
2017-09-20T15:43:54.028Z,15.03
2017-09-20T15:46:31.411Z,15.01
2017-09-20T15:49:07.706Z,15.00
2017-09-20T15:51:43.937Z,15.00
2017-09-20T15:54:23.337Z,14.98
2017-09-20T15:56:58.947Z,14.97
2017-09-20T15:59:32.994Z,14.96
2017-09-20T16:02:04.714Z,14.95
2017-09-20T16:04:40.534Z,14.95
2017-09-20T16:07:15.555Z,14.94
2017-09-20T16:09:47.942Z,14.93
2017-09-20T16:12:23.199Z,14.92
2017-09-20T16:15:01.752Z,14.92
2017-09-20T16:17:41.053Z,14.91
2017-09-20T16:20:16.144Z,14.89
2017-09-20T16:22:55.550Z,14.88
2017-09-20T16:25:31.069Z,14.88
2017-09-20T16:28:07.292Z,14.87
2017-09-20T16:30:46.479Z,14.86
2017-09-20T16:33:24.637Z,14.83
2017-09-20T16:36:04.883Z,14.81
2017-09-20T16:38:39.819Z,14.80
2017-09-20T16:41:12.261Z,14.79
2017-09-20T16:43:46.202Z,14.79
2017-09-20T16:46:16.669Z,14.77
2017-09-20T16:48:56.891Z,14.76
2017-09-20T16:51:26.332Z,14.75
2017-09-20T16:54:00.997Z,14.74
2017-09-20T16:56:32.215Z,14.73
2017-09-20T16:59:04.392Z,14.71
2017-09-20T17:01:41.288Z,14.70
2017-09-20T17:04:14.009Z,14.68
2017-09-20T17:06:52.620Z,14.67
2017-09-20T17:09:33.789Z,14.65
2017-09-20T17:12:10.626Z,14.64
2017-09-20T17:14:49.986Z,14.63
2017-09-20T17:17:24.523Z,14.61
2017-09-20T17:20:04.640Z,14.60
2017-09-20T17:22:42.003Z,14.58
2017-09-20T17:25:18.544Z,14.56
2017-09-20T17:27:57.881Z,14.55
2017-09-20T17:30:32.910Z,14.54
2017-09-20T17:33:12.137Z,14.53
2017-09-20T17:35:55.946Z,14.51
2017-09-20T17:38:36.328Z,14.49
2017-09-20T17:41:13.586Z,14.48
2017-09-20T17:43:53.126Z,14.47
2017-09-20T17:46:32.460Z,14.45
2017-09-20T17:49:12.377Z,14.43
2017-09-20T17:51:51.117Z,14.42
2017-09-20T17:54:29.102Z,14.40
2017-09-20T17:57:10.998Z,14.39
2017-09-20T17:59:46.694Z,14.37
2017-09-20T18:02:20.688Z,14.35
2017-09-20T18:04:57.915Z,14.35
2017-09-20T18:07:35.002Z,14.33
2017-09-20T18:10:07.805Z,14.33
2017-09-20T18:12:46.563Z,14.32
2017-09-20T18:15:23.881Z,14.31
2017-09-20T18:18:02.673Z,14.29
2017-09-20T18:20:41.610Z,14.28
2017-09-20T18:23:24.415Z,14.26
2017-09-20T18:26:05.947Z,14.24
2017-09-20T18:28:44.450Z,14.21
2017-09-20T18:31:26.486Z,14.21
2017-09-20T18:33:55.604Z,14.19
2017-09-20T18:36:24.456Z,14.17
2017-09-20T18:38:53.198Z,14.15
2017-09-20T18:41:21.913Z,14.13
2017-09-20T18:43:50.743Z,14.10
2017-09-20T18:46:19.472Z,14.08
2017-09-20T18:49:02.700Z,14.07
2017-09-20T18:51:36.207Z,14.05
2017-09-20T18:54:11.288Z,14.04
2017-09-20T18:56:44.867Z,14.01
2017-09-20T18:59:20.130Z,13.99
2017-09-20T19:01:52.589Z,13.98
2017-09-20T19:04:30.532Z,13.96
2017-09-20T19:07:07.010Z,13.94
2017-09-20T19:09:40.133Z,13.91
2017-09-20T19:12:21.332Z,13.89
2017-09-20T19:14:56.652Z,13.86
2017-09-20T19:17:29.633Z,13.85
2017-09-20T19:20:05.170Z,13.84
2017-09-20T19:22:35.689Z,13.82
2017-09-20T19:25:07.862Z,13.81
2017-09-20T19:27:50.846Z,13.78
2017-09-20T19:30:24.577Z,13.76
2017-09-20T19:32:55.357Z,13.75
2017-09-20T19:35:24.931Z,13.73
2017-09-20T19:37:55.673Z,13.72
2017-09-20T19:40:26.323Z,13.70
2017-09-20T19:43:00.040Z,13.70
2017-09-20T19:45:38.425Z,13.68
2017-09-20T19:48:10.506Z,13.67
2017-09-20T19:50:42.846Z,13.66
2017-09-20T19:53:17.573Z,13.67
2017-09-20T19:55:53.250Z,13.66
2017-09-20T19:58:29.837Z,13.64
2017-09-20T20:01:00.456Z,13.63
2017-09-20T20:03:33.526Z,13.64
2017-09-20T20:06:12.592Z,13.62
2017-09-20T20:08:42.290Z,13.61
2017-09-20T20:11:11.027Z,13.60
2017-09-20T20:13:39.751Z,13.60
2017-09-20T20:16:09.492Z,13.58
2017-09-20T20:18:40.041Z,13.58
2017-09-20T20:21:09.000Z,13.58
2017-09-20T20:23:37.703Z,13.57
2017-09-20T20:26:06.503Z,13.56
2017-09-20T20:28:36.793Z,13.56
2017-09-20T20:31:05.481Z,13.55
2017-09-20T20:33:34.319Z,13.54
2017-09-20T20:36:03.089Z,13.51
2017-09-20T20:38:35.857Z,13.52
2017-09-20T20:41:04.579Z,13.50
2017-09-20T20:43:33.344Z,13.51
2017-09-20T20:46:01.893Z,13.49
2017-09-20T20:48:30.943Z,13.48
2017-09-20T20:50:59.945Z,13.46
2017-09-20T20:53:28.580Z,13.45
2017-09-20T20:55:57.338Z,13.44
2017-09-20T20:58:25.820Z,13.42
2017-09-20T21:00:54.586Z,13.42
2017-09-20T21:03:23.303Z,13.41
2017-09-20T21:05:52.053Z,13.41
2017-09-20T21:08:20.832Z,13.39
2017-09-20T21:10:49.641Z,13.38
2017-09-20T21:13:18.402Z,13.36
2017-09-20T21:15:47.003Z,13.36
2017-09-20T21:18:15.748Z,13.35
2017-09-20T21:20:44.577Z,13.34
2017-09-20T21:23:13.322Z,13.32
2017-09-20T21:25:42.070Z,13.30
2017-09-20T21:28:10.878Z,13.29
2017-09-20T21:30:39.634Z,13.28
2017-09-20T21:33:08.377Z,13.25
2017-09-20T21:35:37.161Z,13.25
2017-09-20T21:38:05.946Z,13.24
2017-09-20T21:40:34.655Z,13.22
2017-09-20T21:43:03.389Z,13.19
2017-09-20T21:45:32.135Z,13.17
2017-09-20T21:48:00.891Z,13.14
2017-09-20T21:50:29.636Z,13.12
2017-09-20T21:52:58.394Z,13.09
2017-09-20T21:55:27.209Z,13.09
2017-09-20T21:57:55.956Z,13.06
2017-09-20T22:00:24.700Z,13.04
2017-09-20T22:02:53.384Z,13.03
2017-09-20T22:05:22.337Z,13.01
2017-09-20T22:07:51.052Z,12.99
2017-09-20T22:10:19.779Z,12.96
2017-09-20T22:13:02.296Z,12.94
2017-09-20T22:15:50.671Z,12.93
2017-09-20T22:18:38.542Z,12.91
2017-09-20T22:21:24.999Z,12.88
2017-09-20T22:24:11.216Z,12.87
2017-09-20T22:26:52.805Z,12.84
2017-09-20T22:29:29.317Z,12.83
2017-09-20T22:32:04.095Z,12.82
2017-09-20T22:34:33.443Z,12.78
2017-09-20T22:37:02.210Z,12.77
2017-09-20T22:39:31.170Z,12.76
2017-09-20T22:41:59.872Z,12.76
2017-09-20T22:44:28.670Z,12.74
2017-09-20T22:46:57.440Z,12.73
2017-09-20T22:49:26.224Z,12.72
2017-09-20T22:51:54.915Z,12.70
2017-09-20T22:54:23.632Z,12.69
2017-09-20T22:56:52.424Z,12.68
2017-09-20T22:59:21.147Z,12.67
2017-09-20T23:01:49.861Z,12.67
2017-09-20T23:04:18.563Z,12.65
2017-09-20T23:06:47.279Z,12.65
2017-09-20T23:09:16.102Z,12.61
2017-09-20T23:11:44.872Z,12.61
2017-09-20T23:14:13.625Z,12.60
2017-09-20T23:16:42.370Z,12.58
2017-09-20T23:19:11.081Z,12.55
2017-09-20T23:21:39.972Z,12.55
2017-09-20T23:24:08.590Z,12.54
2017-09-20T23:26:37.363Z,12.51
2017-09-20T23:29:06.108Z,12.49
2017-09-20T23:31:34.893Z,12.48
2017-09-20T23:34:03.606Z,12.45
2017-09-20T23:36:32.285Z,12.43
2017-09-20T23:39:01.093Z,12.43
2017-09-20T23:41:29.878Z,12.41
2017-09-20T23:43:58.681Z,12.39
2017-09-20T23:46:27.414Z,12.36
2017-09-20T23:48:56.211Z,12.35
2017-09-20T23:51:24.896Z,12.34
2017-09-20T23:53:53.705Z,12.33
2017-09-20T23:56:22.399Z,12.31
2017-09-20T23:58:51.205Z,12.31
